Time;durP1;ratioP1;P1;durP2;ratioP2;P2;SDS_P1;SDS_P2;PMS_P1;PMS_P2;Temp;Humidity;BMP_temperature;BMP_pressure;BME280_temperature;BME280_humidity;BME280_pressure;Samples;Min_cycle;Max_cycle;Signal;HPM_P1;HPM_P2
2024/01/23 00:00:50;;;;;;;28.40;4.05;;;;;;;;;;5065190;28;20052;-64
2024/01/23 00:03:18;;;;;;;21.05;3.38;;;;;;;;;;5073838;28;20047;-64
2024/01/23 00:05:45;;;;;;;27.95;3.70;;;;;;;;;;5078192;28;20044;-64
2024/01/23 00:08:13;;;;;;;24.55;3.50;;;;;;;;;;5076491;28;20858;-64
2024/01/23 00:10:42;;;;;;;24.02;3.38;;;;;;;;;;5079987;28;20127;-64
2024/01/23 00:13:09;;;;;;;29.40;3.08;;;;;;;;;;5080030;28;20044;-64
2024/01/23 00:15:36;;;;;;;22.75;3.10;;;;;;;;;;5077600;28;20051;-64
2024/01/23 00:18:06;;;;;;;27.00;3.55;;;;;;;;;;5082334;28;20056;-64
2024/01/23 00:20:33;;;;;;;27.13;2.95;;;;;;;;;;5073013;28;20084;-64
2024/01/23 00:23:00;;;;;;;25.15;3.35;;;;;;;;;;5080613;28;20055;-64
2024/01/23 00:25:28;;;;;;;29.40;3.35;;;;;;;;;;5078454;28;20041;-64
2024/01/23 00:27:56;;;;;;;28.05;3.53;;;;;;;;;;5078415;28;20403;-64
2024/01/23 00:30:23;;;;;;;27.52;4.13;;;;;;;;;;5077899;28;20044;-64
2024/01/23 00:32:51;;;;;;;27.10;3.15;;;;;;;;;;5075989;28;20128;-64
2024/01/23 00:35:18;;;;;;;27.10;2.67;;;;;;;;;;5060676;28;20083;-64
2024/01/23 00:37:45;;;;;;;24.33;3.38;;;;;;;;;;5079433;28;20048;-64
2024/01/23 00:40:13;;;;;;;26.67;3.15;;;;;;;;;;5076608;28;20053;-64
2024/01/23 00:42:40;;;;;;;25.75;2.92;;;;;;;;;;5074671;28;20059;-64
2024/01/23 00:45:09;;;;;;;25.83;3.33;;;;;;;;;;5072966;28;20411;-64
2024/01/23 00:47:36;;;;;;;25.13;3.08;;;;;;;;;;5074423;28;20059;-64
2024/01/23 00:50:04;;;;;;;23.15;3.78;;;;;;;;;;5053732;28;20048;-64
2024/01/23 00:52:31;;;;;;;20.88;4.05;;;;;;;;;;5072119;28;20089;-64
2024/01/23 00:55:02;;;;;;;21.40;2.78;;;;;;;;;;5077800;28;20074;-64
2024/01/23 00:57:30;;;;;;;19.30;3.35;;;;;;;;;;5078352;28;20131;-64
2024/01/23 00:59:57;;;;;;;18.58;2.70;;;;;;;;;;5075904;28;20113;-64
2024/01/23 01:02:25;;;;;;;24.70;2.55;;;;;;;;;;5073631;28;20514;-64
2024/01/23 01:04:53;;;;;;;27.73;3.20;;;;;;;;;;5078352;28;20466;-64
2024/01/23 01:07:20;;;;;;;29.50;3.45;;;;;;;;;;5078777;28;20044;-64
2024/01/23 01:09:47;;;;;;;20.48;3.00;;;;;;;;;;5075600;28;20051;-64
2024/01/23 01:12:15;;;;;;;20.48;2.88;;;;;;;;;;5080896;28;20044;-64
2024/01/23 01:14:43;;;;;;;27.52;3.55;;;;;;;;;;5080951;28;20120;-64
2024/01/23 01:17:10;;;;;;;23.30;3.72;;;;;;;;;;5062098;28;20147;-64
2024/01/23 01:19:39;;;;;;;21.48;2.95;;;;;;;;;;5080643;28;20052;-64
2024/01/23 01:22:06;;;;;;;27.95;2.88;;;;;;;;;;5078403;28;20163;-63
2024/01/23 01:24:33;;;;;;;27.05;4.18;;;;;;;;;;5079361;28;20052;-64
2024/01/23 01:27:01;;;;;;;23.02;2.45;;;;;;;;;;5074962;28;20056;-64
2024/01/23 01:29:28;;;;;;;20.95;3.55;;;;;;;;;;5074443;28;20050;-64
2024/01/23 01:31:55;;;;;;;29.13;3.17;;;;;;;;;;5079321;28;20085;-64
2024/01/23 01:34:23;;;;;;;25.85;3.45;;;;;;;;;;5073900;28;20044;-64
2024/01/23 01:36:51;;;;;;;28.10;3.65;;;;;;;;;;5078786;28;20044;-64
2024/01/23 01:39:18;;;;;;;17.58;2.90;;;;;;;;;;5075908;28;20071;-64
2024/01/23 01:41:52;;;;;;;22.73;3.25;;;;;;;;;;5074623;28;20040;-64
2024/01/23 01:44:19;;;;;;;20.98;3.00;;;;;;;;;;5075804;28;20421;-64
2024/01/23 01:46:47;;;;;;;30.90;4.20;;;;;;;;;;5077070;28;20059;-64
2024/01/23 01:49:15;;;;;;;31.00;3.42;;;;;;;;;;5079338;28;20496;-64
2024/01/23 01:51:43;;;;;;;22.65;3.05;;;;;;;;;;5074135;28;20468;-64
2024/01/23 01:54:12;;;;;;;33.25;4.05;;;;;;;;;;5079184;28;20720;-64
2024/01/23 01:56:40;;;;;;;26.35;3.20;;;;;;;;;;5080170;28;20051;-64
2024/01/23 01:59:07;;;;;;;29.52;4.18;;;;;;;;;;5057514;28;20055;-64
2024/01/23 02:01:35;;;;;;;25.67;3.78;;;;;;;;;;5085741;28;20479;-64
2024/01/23 02:04:02;;;;;;;30.00;4.18;;;;;;;;;;5080858;28;20103;-64
2024/01/23 02:06:30;;;;;;;33.38;4.03;;;;;;;;;;5052544;28;20503;-63
2024/01/23 02:08:58;;;;;;;29.42;3.85;;;;;;;;;;5075841;28;20057;-64
2024/01/23 02:11:26;;;;;;;29.80;3.35;;;;;;;;;;5079247;28;20044;-64
2024/01/23 02:13:54;;;;;;;22.02;2.88;;;;;;;;;;5081164;28;20052;-64
2024/01/23 02:16:21;;;;;;;27.60;4.70;;;;;;;;;;5080763;28;20048;-64
2024/01/23 02:18:49;;;;;;;24.85;3.00;;;;;;;;;;5077441;28;20545;-64
2024/01/23 02:21:17;;;;;;;24.58;3.60;;;;;;;;;;5075471;28;20116;-64
2024/01/23 02:23:45;;;;;;;55.78;6.35;;;;;;;;;;5084787;28;20044;-64
2024/01/23 02:26:15;;;;;;;26.83;3.42;;;;;;;;;;5060851;28;20129;-64
2024/01/23 02:28:42;;;;;;;22.17;3.28;;;;;;;;;;5072433;28;20056;-64
2024/01/23 02:31:09;;;;;;;24.80;4.63;;;;;;;;;;5072390;28;20111;-64
2024/01/23 02:33:36;;;;;;;29.85;4.13;;;;;;;;;;5081134;28;20130;-64
2024/01/23 02:36:04;;;;;;;30.63;3.13;;;;;;;;;;5078320;28;20058;-64
2024/01/23 02:38:31;;;;;;;29.73;4.22;;;;;;;;;;5074892;28;20045;-64
2024/01/23 02:41:02;;;;;;;31.27;4.50;;;;;;;;;;5074506;28;20048;-63
2024/01/23 02:43:29;;;;;;;25.10;3.30;;;;;;;;;;5079404;28;20071;-64
2024/01/23 02:45:56;;;;;;;30.05;3.90;;;;;;;;;;5073083;28;20048;-64
2024/01/23 02:48:23;;;;;;;24.42;2.72;;;;;;;;;;5078318;28;20071;-64
2024/01/23 02:50:51;;;;;;;27.02;3.97;;;;;;;;;;5072601;28;20495;-64
2024/01/23 02:53:18;;;;;;;36.35;5.78;;;;;;;;;;5075459;28;20480;-64
2024/01/23 02:55:45;;;;;;;27.55;4.18;;;;;;;;;;5078177;28;20053;-64
2024/01/23 02:58:15;;;;;;;26.58;3.28;;;;;;;;;;5076681;28;20048;-64
2024/01/23 03:00:43;;;;;;;33.70;3.78;;;;;;;;;;5077921;28;20550;-64
2024/01/23 03:03:10;;;;;;;28.48;3.03;;;;;;;;;;5079465;28;20048;-64
2024/01/23 03:05:37;;;;;;;22.40;4.53;;;;;;;;;;5077365;28;20050;-64
2024/01/23 03:08:05;;;;;;;33.40;4.55;;;;;;;;;;5064462;28;20054;-64
2024/01/23 03:10:33;;;;;;;33.03;3.65;;;;;;;;;;5081680;28;20044;-64
2024/01/23 03:13:00;;;;;;;18.25;2.80;;;;;;;;;;5072927;28;20044;-65
2024/01/23 03:15:28;;;;;;;29.73;4.07;;;;;;;;;;5079292;28;20055;-64
2024/01/23 03:17:56;;;;;;;32.15;3.67;;;;;;;;;;5076495;28;20053;-64
2024/01/23 03:20:23;;;;;;;24.83;3.40;;;;;;;;;;5069306;28;20046;-64
2024/01/23 03:22:50;;;;;;;31.42;4.40;;;;;;;;;;5081646;28;20123;-64
2024/01/23 03:25:19;;;;;;;26.38;4.15;;;;;;;;;;5075066;28;20059;-64
2024/01/23 03:27:46;;;;;;;28.13;3.90;;;;;;;;;;5059054;28;20113;-64
2024/01/23 03:30:29;;;;;;;27.63;3.53;;;;;;;;;;5075369;28;20048;-64
2024/01/23 03:32:58;;;;;;;30.52;4.30;;;;;;;;;;5068544;28;20052;-64
2024/01/23 03:35:25;;;;;;;38.35;3.88;;;;;;;;;;5076263;28;20056;-64
2024/01/23 03:37:53;;;;;;;30.23;3.72;;;;;;;;;;5071957;28;20063;-64
2024/01/23 03:40:20;;;;;;;27.40;4.13;;;;;;;;;;5073014;28;20098;-64
2024/01/23 03:42:48;;;;;;;30.38;3.90;;;;;;;;;;5077193;28;20056;-64
2024/01/23 03:45:15;;;;;;;30.33;4.35;;;;;;;;;;5077210;28;20131;-64
2024/01/23 03:47:42;;;;;;;31.10;4.47;;;;;;;;;;5070087;28;20051;-64
2024/01/23 03:50:11;;;;;;;31.48;3.50;;;;;;;;;;5078011;28;20048;-64
2024/01/23 03:52:38;;;;;;;29.23;4.68;;;;;;;;;;5078112;28;20044;-64
2024/01/23 03:55:06;;;;;;;29.55;4.13;;;;;;;;;;5080238;28;20047;-64
2024/01/23 03:57:33;;;;;;;40.22;4.57;;;;;;;;;;5079393;28;20067;-64
2024/01/23 04:00:01;;;;;;;39.08;4.47;;;;;;;;;;5073514;28;20051;-64
2024/01/23 04:02:31;;;;;;;32.45;3.75;;;;;;;;;;5072801;28;20052;-64
2024/01/23 04:04:58;;;;;;;28.80;3.88;;;;;;;;;;5070032;28;20056;-64
2024/01/23 04:07:28;;;;;;;28.70;4.13;;;;;;;;;;5072998;28;20508;-64
2024/01/23 04:09:56;;;;;;;37.15;4.45;;;;;;;;;;5078187;28;20055;-64
2024/01/23 04:12:23;;;;;;;26.80;4.75;;;;;;;;;;5070127;28;20045;-64
2024/01/23 04:14:50;;;;;;;37.97;4.35;;;;;;;;;;5080878;28;20479;-64
2024/01/23 04:17:17;;;;;;;26.48;4.38;;;;;;;;;;5075343;28;20052;-64
2024/01/23 04:19:45;;;;;;;24.92;3.47;;;;;;;;;;5072799;28;20052;-64
2024/01/23 04:22:12;;;;;;;30.67;4.97;;;;;;;;;;5069296;28;20085;-65
2024/01/23 04:24:41;;;;;;;30.98;4.63;;;;;;;;;;5076578;28;20060;-65
2024/01/23 04:27:08;;;;;;;34.88;3.92;;;;;;;;;;5077045;28;20044;-64
2024/01/23 04:29:36;;;;;;;25.95;3.70;;;;;;;;;;5070802;28;20420;-63
2024/01/23 04:32:03;;;;;;;30.92;5.63;;;;;;;;;;5075886;28;20059;-64
2024/01/23 04:34:30;;;;;;;43.00;5.68;;;;;;;;;;5073288;28;20048;-64
2024/01/23 04:36:57;;;;;;;36.28;4.35;;;;;;;;;;5075988;28;20056;-64
2024/01/23 04:39:25;;;;;;;28.77;3.88;;;;;;;;;;5074419;28;20151;-64
2024/01/23 04:41:54;;;;;;;27.13;4.40;;;;;;;;;;5080363;28;20565;-64
2024/01/23 04:44:21;;;;;;;35.15;4.50;;;;;;;;;;5072993;28;20052;-64
2024/01/23 04:46:48;;;;;;;33.05;3.92;;;;;;;;;;5076684;28;20044;-64
2024/01/23 04:49:15;;;;;;;29.10;3.45;;;;;;;;;;5063044;28;20060;-64
2024/01/23 04:51:42;;;;;;;42.25;4.82;;;;;;;;;;5079101;28;20056;-64
2024/01/23 04:54:10;;;;;;;36.25;4.38;;;;;;;;;;5079798;28;20044;-65
2024/01/23 04:56:37;;;;;;;32.20;4.50;;;;;;;;;;5079027;28;20055;-64
2024/01/23 04:59:06;;;;;;;40.40;4.88;;;;;;;;;;5080716;28;20070;-64
2024/01/23 05:01:33;;;;;;;42.33;5.00;;;;;;;;;;5075814;28;20045;-64
2024/01/23 05:04:00;;;;;;;39.15;5.25;;;;;;;;;;5077407;28;20055;-63
2024/01/23 05:06:29;;;;;;;32.95;4.80;;;;;;;;;;5075540;28;20055;-64
2024/01/23 05:08:57;;;;;;;28.85;5.15;;;;;;;;;;5078437;28;20423;-64
2024/01/23 05:11:24;;;;;;;33.35;4.38;;;;;;;;;;5073375;28;20056;-64
2024/01/23 05:13:51;;;;;;;46.60;4.20;;;;;;;;;;5082773;28;20486;-64
2024/01/23 05:16:20;;;;;;;39.95;5.38;;;;;;;;;;5055355;28;20059;-64
2024/01/23 05:18:48;;;;;;;33.20;4.13;;;;;;;;;;5079918;28;20052;-64
2024/01/23 05:21:15;;;;;;;38.58;4.97;;;;;;;;;;5070361;28;20110;-64
2024/01/23 05:23:43;;;;;;;45.50;5.55;;;;;;;;;;5075839;28;20556;-64
2024/01/23 05:26:10;;;;;;;34.85;4.07;;;;;;;;;;5073445;28;20048;-64
2024/01/23 05:28:37;;;;;;;37.05;4.32;;;;;;;;;;5084279;28;20505;-64
2024/01/23 05:31:04;;;;;;;37.97;4.85;;;;;;;;;;5072404;28;20056;-64
2024/01/23 05:33:33;;;;;;;37.78;4.95;;;;;;;;;;5078905;28;20466;-65
2024/01/23 05:36:00;;;;;;;39.63;5.75;;;;;;;;;;5074249;28;20044;-64
2024/01/23 05:38:28;;;;;;;38.15;5.00;;;;;;;;;;5077811;28;20448;-64
2024/01/23 05:40:55;;;;;;;42.53;5.15;;;;;;;;;;5079486;28;20053;-65
2024/01/23 05:43:22;;;;;;;37.33;4.88;;;;;;;;;;5078394;28;20387;-64
2024/01/23 05:45:50;;;;;;;27.88;4.25;;;;;;;;;;5079254;28;20052;-64
2024/01/23 05:48:17;;;;;;;42.90;4.70;;;;;;;;;;5081901;28;20143;-64
2024/01/23 05:50:46;;;;;;;61.08;5.18;;;;;;;;;;5084474;28;20048;-64
2024/01/23 05:53:13;;;;;;;48.22;5.47;;;;;;;;;;5076672;28;20048;-64
2024/01/23 05:55:40;;;;;;;39.90;5.00;;;;;;;;;;5080822;28;20049;-64
2024/01/23 05:58:09;;;;;;;47.95;6.35;;;;;;;;;;5077052;28;20072;-64
2024/01/23 06:00:37;;;;;;;42.30;5.25;;;;;;;;;;5078540;28;20076;-64
2024/01/23 06:03:04;;;;;;;36.20;4.90;;;;;;;;;;5076643;28;20063;-64
2024/01/23 06:05:31;;;;;;;27.70;4.32;;;;;;;;;;5081044;28;20090;-64
2024/01/23 06:08:00;;;;;;;37.00;4.65;;;;;;;;;;5073909;28;20053;-64
2024/01/23 06:10:27;;;;;;;37.30;4.60;;;;;;;;;;5079111;28;20044;-64
2024/01/23 06:12:55;;;;;;;48.42;5.45;;;;;;;;;;5059922;28;20060;-64
2024/01/23 06:15:22;;;;;;;35.83;5.07;;;;;;;;;;5073339;28;20044;-65
2024/01/23 06:17:50;;;;;;;46.50;6.18;;;;;;;;;;5072173;28;20052;-64
2024/01/23 06:20:17;;;;;;;41.80;5.13;;;;;;;;;;5081960;28;20040;-64
2024/01/23 06:22:45;;;;;;;38.13;5.18;;;;;;;;;;5056340;28;20390;-65
2024/01/23 06:25:15;;;;;;;41.72;4.75;;;;;;;;;;5074848;28;20562;-64
2024/01/23 06:27:42;;;;;;;47.35;5.00;;;;;;;;;;5081559;28;20048;-65
2024/01/23 06:30:11;;;;;;;57.35;6.75;;;;;;;;;;5071463;28;20048;-64
2024/01/23 06:32:39;;;;;;;34.33;4.75;;;;;;;;;;5077726;28;20194;-64
2024/01/23 06:35:06;;;;;;;52.67;5.75;;;;;;;;;;5073464;28;20117;-65
2024/01/23 06:37:34;;;;;;;40.08;5.70;;;;;;;;;;5076256;28;20051;-64
2024/01/23 06:40:01;;;;;;;39.13;5.45;;;;;;;;;;5072331;28;20060;-64
2024/01/23 06:42:30;;;;;;;50.22;6.22;;;;;;;;;;5070162;28;20071;-64
2024/01/23 06:44:57;;;;;;;47.95;6.10;;;;;;;;;;5075876;28;20486;-64
2024/01/23 06:47:24;;;;;;;48.25;5.05;;;;;;;;;;5071702;28;20048;-64
2024/01/23 06:49:52;;;;;;;49.33;5.95;;;;;;;;;;5075834;28;20048;-64
2024/01/23 06:52:19;;;;;;;38.47;4.93;;;;;;;;;;5085455;28;20055;-64
2024/01/23 06:54:46;;;;;;;43.25;5.88;;;;;;;;;;5072416;28;20044;-64
2024/01/23 06:57:13;;;;;;;40.85;4.82;;;;;;;;;;5069472;28;20055;-64
2024/01/23 06:59:42;;;;;;;44.03;5.82;;;;;;;;;;5077981;28;20052;-64
2024/01/23 07:02:10;;;;;;;41.72;5.07;;;;;;;;;;5057278;28;20118;-64
2024/01/23 07:04:40;;;;;;;41.67;5.45;;;;;;;;;;5060956;28;20076;-64
2024/01/23 07:07:08;;;;;;;38.35;5.38;;;;;;;;;;5074443;28;20048;-65
2024/01/23 07:09:36;;;;;;;41.30;4.90;;;;;;;;;;5042129;28;20045;-64
2024/01/23 07:12:03;;;;;;;36.17;5.05;;;;;;;;;;5058754;28;20045;-64
2024/01/23 07:14:30;;;;;;;48.72;5.10;;;;;;;;;;5057220;28;20040;-64
2024/01/23 07:16:59;;;;;;;50.03;5.43;;;;;;;;;;5060507;28;20153;-64
2024/01/23 07:19:26;;;;;;;40.38;5.65;;;;;;;;;;5055654;28;20098;-64
2024/01/23 07:21:53;;;;;;;43.38;6.18;;;;;;;;;;5055088;28;20048;-64
2024/01/23 07:24:21;;;;;;;43.53;5.05;;;;;;;;;;5058957;28;20044;-64
2024/01/23 07:26:48;;;;;;;50.47;5.95;;;;;;;;;;5056870;28;20059;-64
2024/01/23 07:29:15;;;;;;;44.45;4.97;;;;;;;;;;5054088;28;20064;-64
2024/01/23 07:31:43;;;;;;;38.50;5.95;;;;;;;;;;5058483;28;20044;-64
2024/01/23 07:34:11;;;;;;;43.03;5.35;;;;;;;;;;5050360;28;20048;-64
2024/01/23 07:36:38;;;;;;;55.40;6.25;;;;;;;;;;5060626;28;20135;-64
2024/01/23 07:39:06;;;;;;;51.03;6.50;;;;;;;;;;5034441;28;20055;-64
2024/01/23 07:41:33;;;;;;;48.60;5.28;;;;;;;;;;5053391;28;20051;-64
2024/01/23 07:44:00;;;;;;;43.58;4.53;;;;;;;;;;5050867;28;20403;-64
2024/01/23 07:46:27;;;;;;;49.90;6.18;;;;;;;;;;5053288;28;20053;-64
2024/01/23 07:48:55;;;;;;;39.40;5.70;;;;;;;;;;5057525;28;20049;-64
2024/01/23 07:51:23;;;;;;;45.42;5.22;;;;;;;;;;5052460;28;20051;-64
2024/01/23 07:53:51;;;;;;;43.92;7.72;;;;;;;;;;5058123;28;20049;-65
2024/01/23 07:56:18;;;;;;;43.10;5.25;;;;;;;;;;5038311;28;20048;-65
2024/01/23 07:58:45;;;;;;;30.80;4.40;;;;;;;;;;5054821;28;20060;-65
2024/01/23 08:01:12;;;;;;;37.30;4.25;;;;;;;;;;5059210;28;20040;-64
2024/01/23 08:03:39;;;;;;;46.45;4.82;;;;;;;;;;5061113;28;20381;-65
2024/01/23 08:06:07;;;;;;;46.22;6.88;;;;;;;;;;5048048;28;20055;-65
2024/01/23 08:08:37;;;;;;;47.95;5.20;;;;;;;;;;5075655;28;20052;-65
2024/01/23 08:11:05;;;;;;;42.90;5.55;;;;;;;;;;5086292;28;20048;-64
2024/01/23 08:13:32;;;;;;;34.10;5.15;;;;;;;;;;5072887;28;20402;-64
2024/01/23 08:15:59;;;;;;;36.13;4.55;;;;;;;;;;5077013;28;20062;-65
2024/01/23 08:18:26;;;;;;;44.88;5.63;;;;;;;;;;5089608;28;20429;-65
2024/01/23 08:20:54;;;;;;;48.67;5.55;;;;;;;;;;5078726;28;20047;-64
2024/01/23 08:23:22;;;;;;;39.53;6.10;;;;;;;;;;5079898;28;20048;-64
2024/01/23 08:25:51;;;;;;;38.25;6.18;;;;;;;;;;5077012;28;20071;-65
2024/01/23 08:28:19;;;;;;;44.35;5.03;;;;;;;;;;5070730;28;20454;-64
2024/01/23 08:30:46;;;;;;;40.40;5.28;;;;;;;;;;5059187;28;20052;-65
2024/01/23 08:33:18;;;;;;;51.45;5.15;;;;;;;;;;5079395;28;20057;-65
2024/01/23 08:35:45;;;;;;;42.78;4.78;;;;;;;;;;5077330;28;20123;-65
2024/01/23 08:38:12;;;;;;;39.03;4.93;;;;;;;;;;5080047;28;20052;-65
2024/01/23 08:40:41;;;;;;;46.53;5.25;;;;;;;;;;5073874;28;20044;-65
2024/01/23 08:43:10;;;;;;;49.50;6.45;;;;;;;;;;5075878;28;20048;-65
2024/01/23 08:45:37;;;;;;;34.75;5.28;;;;;;;;;;5083275;28;20056;-64
2024/01/23 08:48:05;;;;;;;36.00;5.63;;;;;;;;;;5076632;28;20060;-65
2024/01/23 08:50:32;;;;;;;53.97;5.57;;;;;;;;;;5075796;28;20051;-64
2024/01/23 08:52:59;;;;;;;37.72;4.50;;;;;;;;;;5077765;28;20577;-65
2024/01/23 08:55:27;;;;;;;37.80;5.43;;;;;;;;;;5081642;28;20399;-64
2024/01/23 08:57:54;;;;;;;43.45;5.50;;;;;;;;;;5071848;28;20051;-65
2024/01/23 09:00:24;;;;;;;38.28;5.03;;;;;;;;;;5074183;28;20048;-64
2024/01/23 09:02:50;;;;;;;34.65;5.78;;;;;;;;;;5081570;28;20434;-65
2024/01/23 09:05:17;;;;;;;43.53;6.80;;;;;;;;;;5077169;28;20514;-65
2024/01/23 09:07:44;;;;;;;40.90;5.13;;;;;;;;;;5073831;28;20048;-65
2024/01/23 09:10:12;;;;;;;38.13;4.90;;;;;;;;;;5080869;28;20044;-65
2024/01/23 09:12:39;;;;;;;44.40;4.93;;;;;;;;;;5077488;28;20048;-65
2024/01/23 09:15:09;;;;;;;50.22;4.85;;;;;;;;;;5072768;28;20055;-65
2024/01/23 09:17:38;;;;;;;39.53;4.50;;;;;;;;;;5066258;28;20041;-65
2024/01/23 09:20:06;;;;;;;33.08;4.63;;;;;;;;;;5074537;28;20048;-65
2024/01/23 09:22:33;;;;;;;31.95;4.43;;;;;;;;;;5076205;28;20113;-65
2024/01/23 09:25:03;;;;;;;41.05;5.38;;;;;;;;;;5074233;28;20113;-65
2024/01/23 09:27:30;;;;;;;48.75;5.57;;;;;;;;;;5079055;28;20131;-64
2024/01/23 09:29:57;;;;;;;36.95;4.90;;;;;;;;;;5080913;28;20134;-65
2024/01/23 09:32:25;;;;;;;43.47;4.65;;;;;;;;;;5076442;28;21223;-65
2024/01/23 09:34:53;;;;;;;37.08;4.45;;;;;;;;;;5073756;28;20540;-65
2024/01/23 09:37:21;;;;;;;41.95;5.05;;;;;;;;;;5070336;28;20052;-65
2024/01/23 09:39:48;;;;;;;40.95;5.07;;;;;;;;;;5082452;28;20048;-65
2024/01/23 09:42:16;;;;;;;38.05;4.50;;;;;;;;;;5074627;28;20056;-65
2024/01/23 09:44:43;;;;;;;33.08;4.03;;;;;;;;;;5082300;28;20066;-65
2024/01/23 09:47:11;;;;;;;34.10;4.55;;;;;;;;;;5078544;28;20072;-65
2024/01/23 09:49:38;;;;;;;56.50;6.88;;;;;;;;;;5074522;28;20045;-65
2024/01/23 09:52:08;;;;;;;51.20;6.13;;;;;;;;;;5071435;28;20061;-65
2024/01/23 09:54:35;;;;;;;40.30;5.47;;;;;;;;;;5076899;28;20131;-65
2024/01/23 09:57:03;;;;;;;56.80;5.60;;;;;;;;;;5072219;28;20048;-65
2024/01/23 09:59:30;;;;;;;51.17;6.00;;;;;;;;;;5073303;28;20438;-65
2024/01/23 10:01:57;;;;;;;36.03;4.45;;;;;;;;;;5078333;28;20056;-65
2024/01/23 10:04:25;;;;;;;36.03;4.75;;;;;;;;;;5073277;28;20071;-65
2024/01/23 10:06:53;;;;;;;43.47;4.90;;;;;;;;;;5080790;28;20502;-65
2024/01/23 10:09:21;;;;;;;33.40;4.50;;;;;;;;;;5078173;28;20132;-65
2024/01/23 10:11:49;;;;;;;46.45;5.32;;;;;;;;;;5073571;28;20052;-65
2024/01/23 10:14:16;;;;;;;46.17;5.30;;;;;;;;;;5076005;28;20048;-65
2024/01/23 10:16:43;;;;;;;47.78;5.70;;;;;;;;;;5062190;28;20138;-65
2024/01/23 10:19:11;;;;;;;38.35;5.32;;;;;;;;;;5075680;28;20059;-65
2024/01/23 10:21:38;;;;;;;30.15;4.10;;;;;;;;;;5072462;28;20441;-65
2024/01/23 10:24:07;;;;;;;40.35;4.13;;;;;;;;;;5056807;28;20070;-65
2024/01/23 10:26:36;;;;;;;35.72;5.30;;;;;;;;;;5056359;28;20060;-65
2024/01/23 10:29:04;;;;;;;35.95;4.35;;;;;;;;;;5078838;28;20048;-65
2024/01/23 10:31:31;;;;;;;40.50;6.18;;;;;;;;;;5077784;28;20044;-65
2024/01/23 10:33:58;;;;;;;46.78;5.93;;;;;;;;;;5073417;28;20075;-65
2024/01/23 10:36:26;;;;;;;45.08;5.70;;;;;;;;;;5074632;28;20054;-65
2024/01/23 10:38:54;;;;;;;44.25;5.43;;;;;;;;;;5073133;28;20056;-65
2024/01/23 10:41:22;;;;;;;40.10;4.68;;;;;;;;;;5078406;28;20093;-65
2024/01/23 10:43:51;;;;;;;32.33;4.68;;;;;;;;;;5073154;28;20128;-64
2024/01/23 10:46:18;;;;;;;35.85;4.65;;;;;;;;;;5075015;28;20064;-65
2024/01/23 10:48:45;;;;;;;32.28;4.80;;;;;;;;;;5070340;28;20051;-65
2024/01/23 10:51:18;;;;;;;36.95;4.72;;;;;;;;;;5072773;28;20070;-65
2024/01/23 10:53:49;;;;;;;38.20;4.60;;;;;;;;;;5074391;28;20044;-65
2024/01/23 10:56:17;;;;;;;37.15;5.40;;;;;;;;;;5056828;28;20055;-65
2024/01/23 10:58:47;;;;;;;30.67;4.50;;;;;;;;;;5062916;28;20047;-65
2024/01/23 11:01:16;;;;;;;42.83;5.97;;;;;;;;;;5078656;28;20131;-65
2024/01/23 11:03:43;;;;;;;33.42;4.78;;;;;;;;;;5075578;28;20483;-65
2024/01/23 11:06:14;;;;;;;32.42;4.07;;;;;;;;;;5075113;28;20048;-65
2024/01/23 11:08:44;;;;;;;37.92;5.60;;;;;;;;;;5076553;28;20052;-64
2024/01/23 11:11:16;;;;;;;32.17;4.63;;;;;;;;;;5074013;28;20114;-65
2024/01/23 11:13:44;;;;;;;34.78;3.83;;;;;;;;;;5077347;28;20691;-65
2024/01/23 11:16:10;;;;;;;29.52;4.88;;;;;;;;;;5074982;28;20409;-65
2024/01/23 11:18:41;;;;;;;34.53;3.80;;;;;;;;;;5085213;28;20051;-65
2024/01/23 11:21:17;;;;;;;33.10;5.82;;;;;;;;;;5071629;28;20434;-64
2024/01/23 11:23:45;;;;;;;26.05;3.80;;;;;;;;;;5079040;28;20574;-65
2024/01/23 11:26:15;;;;;;;37.15;4.22;;;;;;;;;;5068695;28;20053;-65
2024/01/23 11:28:44;;;;;;;27.92;4.55;;;;;;;;;;5049319;28;20384;-65
2024/01/23 11:31:14;;;;;;;33.30;3.83;;;;;;;;;;5071257;28;20110;-64
2024/01/23 11:33:42;;;;;;;24.05;3.72;;;;;;;;;;5061192;28;20053;-65
2024/01/23 11:36:10;;;;;;;35.05;4.50;;;;;;;;;;5070016;28;20056;-65
2024/01/23 11:38:44;;;;;;;37.40;4.45;;;;;;;;;;5074715;28;20049;-64
2024/01/23 11:41:16;;;;;;;33.83;5.07;;;;;;;;;;5071421;28;20488;-65
2024/01/23 11:43:43;;;;;;;37.53;4.43;;;;;;;;;;5071187;28;20036;-64
2024/01/23 11:46:13;;;;;;;34.28;4.85;;;;;;;;;;5053630;28;20058;-64
2024/01/23 11:48:42;;;;;;;31.80;4.85;;;;;;;;;;5076245;28;20051;-64
2024/01/23 11:51:12;;;;;;;30.92;3.47;;;;;;;;;;5073288;28;20054;-65
2024/01/23 11:53:41;;;;;;;30.88;4.20;;;;;;;;;;5075458;28;20037;-65
2024/01/23 11:56:09;;;;;;;41.85;5.25;;;;;;;;;;5069914;28;20769;-65
2024/01/23 11:58:36;;;;;;;39.55;3.75;;;;;;;;;;5056836;28;20553;-65
2024/01/23 12:01:04;;;;;;;45.17;4.43;;;;;;;;;;5068514;28;20057;-65
2024/01/23 12:03:31;;;;;;;33.78;4.13;;;;;;;;;;5074458;28;20049;-64
2024/01/23 12:06:00;;;;;;;30.77;4.50;;;;;;;;;;5058847;28;20052;-64
2024/01/23 12:08:28;;;;;;;30.45;4.03;;;;;;;;;;5052849;28;20419;-65
2024/01/23 12:10:55;;;;;;;31.77;4.43;;;;;;;;;;5075527;28;20049;-65
2024/01/23 12:13:23;;;;;;;27.02;3.88;;;;;;;;;;5071585;28;20040;-65
2024/01/23 12:15:50;;;;;;;32.65;4.75;;;;;;;;;;5076379;28;20056;-64
2024/01/23 12:18:22;;;;;;;30.00;3.95;;;;;;;;;;5076707;28;20128;-65
2024/01/23 12:20:50;;;;;;;31.10;4.30;;;;;;;;;;5076493;28;20442;-64
2024/01/23 12:23:19;;;;;;;28.23;3.50;;;;;;;;;;5068656;28;20125;-64
2024/01/23 12:25:48;;;;;;;24.98;3.47;;;;;;;;;;5067325;28;20044;-64
2024/01/23 12:28:17;;;;;;;32.13;4.05;;;;;;;;;;5079693;28;20121;-65
2024/01/23 12:30:44;;;;;;;28.58;3.25;;;;;;;;;;5081065;28;20087;-65
2024/01/23 12:33:15;;;;;;;24.35;3.70;;;;;;;;;;5075224;28;20048;-64
2024/01/23 12:35:42;;;;;;;35.63;4.22;;;;;;;;;;5071416;28;20045;-65
2024/01/23 12:38:10;;;;;;;29.67;3.92;;;;;;;;;;5083384;28;20094;-65
2024/01/23 12:40:38;;;;;;;24.52;4.25;;;;;;;;;;5077175;28;20052;-65
2024/01/23 12:43:05;;;;;;;29.15;3.80;;;;;;;;;;5078148;28;20044;-65
2024/01/23 12:45:33;;;;;;;29.45;3.63;;;;;;;;;;5071901;28;20060;-64
2024/01/23 12:48:01;;;;;;;30.80;4.45;;;;;;;;;;5075319;28;20056;-65
2024/01/23 12:50:28;;;;;;;29.27;4.15;;;;;;;;;;5073150;28;20044;-64
2024/01/23 12:52:56;;;;;;;31.55;3.13;;;;;;;;;;5079171;28;20043;-65
2024/01/23 12:55:24;;;;;;;26.67;3.90;;;;;;;;;;5075471;28;20067;-65
2024/01/23 12:57:53;;;;;;;29.00;3.70;;;;;;;;;;5075418;28;20049;-65
2024/01/23 13:00:20;;;;;;;35.70;4.00;;;;;;;;;;5081337;28;20723;-65
2024/01/23 13:02:48;;;;;;;23.75;3.67;;;;;;;;;;5089107;28;20047;-64
2024/01/23 13:05:17;;;;;;;26.55;3.75;;;;;;;;;;5080459;28;20052;-65
2024/01/23 13:07:45;;;;;;;31.05;3.42;;;;;;;;;;5082923;28;20062;-65
2024/01/23 13:10:13;;;;;;;27.83;3.47;;;;;;;;;;5083297;28;20052;-65
2024/01/23 13:12:41;;;;;;;31.33;4.40;;;;;;;;;;5054738;28;20056;-65
2024/01/23 13:15:10;;;;;;;32.00;4.03;;;;;;;;;;5081930;28;20044;-64
2024/01/23 13:17:37;;;;;;;26.60;3.40;;;;;;;;;;5080645;28;20119;-64
2024/01/23 13:20:09;;;;;;;26.25;3.50;;;;;;;;;;5077899;28;20556;-64
2024/01/23 13:22:39;;;;;;;29.63;4.22;;;;;;;;;;5075783;28;20055;-65
2024/01/23 13:25:07;;;;;;;34.45;4.28;;;;;;;;;;5075931;28;20501;-65
2024/01/23 13:27:35;;;;;;;26.52;3.83;;;;;;;;;;5080300;28;20048;-64
2024/01/23 13:30:02;;;;;;;38.20;5.15;;;;;;;;;;5086072;28;20059;-64
2024/01/23 13:32:31;;;;;;;23.00;4.30;;;;;;;;;;5071297;28;20464;-64
2024/01/23 13:34:58;;;;;;;29.17;4.93;;;;;;;;;;5079290;28;20131;-64
2024/01/23 13:37:26;;;;;;;39.75;5.22;;;;;;;;;;5081093;28;20048;-65
2024/01/23 13:39:53;;;;;;;29.50;3.90;;;;;;;;;;5076161;28;20050;-64
2024/01/23 13:42:21;;;;;;;29.55;4.10;;;;;;;;;;5077008;28;20169;-64
2024/01/23 13:44:48;;;;;;;29.23;4.10;;;;;;;;;;5057246;28;20064;-65
2024/01/23 13:47:16;;;;;;;35.97;4.47;;;;;;;;;;5080848;28;20071;-64
2024/01/23 13:49:45;;;;;;;35.28;4.20;;;;;;;;;;5075990;28;20049;-65
2024/01/23 13:52:12;;;;;;;32.35;5.55;;;;;;;;;;5077777;28;20479;-65
2024/01/23 13:54:40;;;;;;;32.10;4.05;;;;;;;;;;5083142;28;20071;-64
2024/01/23 13:57:08;;;;;;;31.20;4.05;;;;;;;;;;5081335;28;20067;-65
2024/01/23 13:59:35;;;;;;;24.58;3.83;;;;;;;;;;5079047;28;20119;-65
2024/01/23 14:02:03;;;;;;;36.50;4.53;;;;;;;;;;5082591;28;20114;-64
2024/01/23 14:04:31;;;;;;;27.27;3.25;;;;;;;;;;5066748;28;20059;-65
2024/01/23 14:06:59;;;;;;;33.08;3.88;;;;;;;;;;5085353;28;20456;-64
2024/01/23 14:09:30;;;;;;;30.45;3.60;;;;;;;;;;5076795;28;20415;-64
2024/01/23 14:11:57;;;;;;;26.05;3.55;;;;;;;;;;5080214;28;20060;-64
2024/01/23 14:14:25;;;;;;;19.33;3.00;;;;;;;;;;5081126;28;20475;-65
2024/01/23 14:16:52;;;;;;;19.83;2.92;;;;;;;;;;5066287;28;20783;-65
2024/01/23 14:19:19;;;;;;;20.55;2.60;;;;;;;;;;5077905;28;20071;-64
2024/01/23 14:21:47;;;;;;;28.33;4.45;;;;;;;;;;5078318;28;20052;-64
2024/01/23 14:24:17;;;;;;;25.50;3.58;;;;;;;;;;5077046;28;20048;-64
2024/01/23 14:26:44;;;;;;;28.42;3.45;;;;;;;;;;5074196;28;20051;-65
2024/01/23 14:29:12;;;;;;;25.35;3.55;;;;;;;;;;5080121;28;20048;-64
2024/01/23 14:31:39;;;;;;;25.58;3.97;;;;;;;;;;5075309;28;20052;-64
2024/01/23 14:34:06;;;;;;;31.15;3.35;;;;;;;;;;5071192;28;20594;-64